KTDZ/TDZ METAR and TAF weather

Enter ICAO airport designator
Station Type Date Time Source
KTDZ METAR 2019/02/21 11:53 UTC NOAA

KTDZ 211153Z AUTO 25007KT 10SM CLR 01/M03 A3003 RMK AO2 SLP174 70006 T00061028 10033 20006 53019


Station Type Date Time Source
KTDZ Decoded METAR 2019/02/21 11:53 UTC NOAA

TOLEDO METCALF FIELD, OH, United States (KTDZ) 41-34N 83-29W 189M
Feb 21, 2019 - 06:53 AM EST / 2019.02.21 1153 UTC
Wind: from the WSW (250 degrees) at 8 MPH (7 KT):0
Visibility: 10 mile(s):0
Sky conditions: clear
Temperature: 33.1 F (0.6 C)
Windchill: 26 F (-3 C):1
Dew Point: 27.0 F (-2.8 C)
Relative Humidity: 77%
Pressure (altimeter): 30.03 in. Hg (1016 hPa)
Pressure tendency: 0.06 inches (1.9 hPa) higher than three hours ago
ob: KTDZ 211153Z AUTO 25007KT 10SM CLR 01/M03 A3003 RMK AO2 SLP174 70006 T00061028 10033 20006 53019
cycle: 12

Station Type Date Time Source
KTDZ TAF UTC NOAA

Error!


Example: see airport list